Terminal Aerodrome Forecast
Issued by NWS Albany, NY

Current Version | Previous Version | Text Only | Print | Product List | Glossary On
Versions: 1 2 3 4 5 6 7 8 9 10 11 12 13 14 15 16 17 18 19 20
439 FTUS41 KALY 261820 AAA TAFALB TAF AMD KALB 261820Z 2618/2718 27007KT P6SM VCTS BKN050CB TEMPO 2618/2619 VRB10G25KT 3SM -TSRA BKN035CB FM261900 27007KT P6SM VCSH BKN050 FM270100 VRB03KT P6SM SCT060 FM271600 21007KT P6SM VCSH BKN070=

USA.gov is the U.S. government's official web portal to all federal, state and local government web resources and services.